MMMD/MID METAR and TAF weather

Enter ICAO airport designator
Station Type Date Time Source
MMMD METAR 2022/06/30 13:48 UTC NOAA

MMMD 301348Z 14004KT 7SM FEW012 BKN300 28/24 A3007 RMK 8/108


Station Type Date Time Source
MMMD Decoded METAR 2022/06/30 13:48 UTC NOAA

Merida / lic Manuel Crecencio, Mexico (MMMD) 20-56N 089-39W 11M
Jun 30, 2022 - 09:48 AM EDT / 2022.06.30 1348 UTC
Wind: from the SE (140 degrees) at 5 MPH (4 KT):0
Visibility: 7 mile(s):0
Sky conditions: mostly cloudy
Temperature: 82 F (28 C)
Dew Point: 75 F (24 C)
Relative Humidity: 78%
Pressure (altimeter): 30.07 in. Hg (1018 hPa)
ob: MMMD 301348Z 14004KT 7SM FEW012 BKN300 28/24 A3007 RMK 8/108
cycle: 14

Station Type Date Time Source
MMMD TAF 2022/06/30 12:32 UTC NOAA

TAF MMMD 301025Z 3012/0118 10005KT P6SM SCT300 TX34/3019Z TN23/3012Z
FM301600 13010KT P6SM BKN020
TEMPO 3023/0103 3SM TSRA BKN020CB
FM010400 08005KT P6SM SCT020 BKN080
FM011600 12010KT P6SM BKN020

Example: see airport list